Guide Rock, Nebraska
Current Conditions -  °F | °C
As of 1:53 PM on Wednesday 28 Jan 2015 (Local Time) from KHSI Reporting Station
Clear Clear  
Wind Chill: 66°   Ceiling: Unl
Heat Index: 66°   Visibility: 10mi
Dew Point: 31°   Wind: 14mph
Humidity: 27%   Direction: 300°WNW
Pressure: 29.71"   Gusts: NA
Location:  40.07°N, 98.33°W
Report Text: KHSI 281953Z AUTO 30012KT 10SM CLR 19/M01 A2971 RMK AO2 SLP060 T01891006
Loading
Personal Weather Stations






























Interactive Weather Map New forecast layout! Learn more

10-Day Weather Forecast

Advertisements
Track Severe Weather on mobile